createdAt,value
2018-02-06T00:00:48.622Z,997.06
2018-02-06T00:02:41.367Z,997.00
2018-02-06T00:03:41.268Z,996.98
2018-02-06T00:05:34.024Z,996.99
2018-02-06T00:06:33.926Z,996.97
2018-02-06T00:08:26.741Z,996.96
2018-02-06T00:09:26.547Z,996.94
2018-02-06T00:11:19.341Z,996.91
2018-02-06T00:12:19.227Z,996.87
2018-02-06T00:14:12.974Z,996.83
2018-02-06T00:15:12.863Z,996.86
2018-02-06T00:17:05.659Z,996.81
2018-02-06T00:18:05.518Z,996.83
2018-02-06T00:19:58.262Z,996.77
2018-02-06T00:20:58.157Z,996.73
2018-02-06T00:22:50.932Z,996.74
2018-02-06T00:23:50.809Z,996.68
2018-02-06T00:25:43.560Z,996.68
2018-02-06T00:26:43.455Z,996.62
2018-02-06T00:28:36.249Z,996.60
2018-02-06T00:29:36.111Z,996.61
2018-02-06T00:31:28.879Z,996.58
2018-02-06T00:32:28.790Z,996.54
2018-02-06T00:34:21.770Z,996.46
2018-02-06T00:35:21.410Z,996.44
2018-02-06T00:37:14.160Z,996.46
2018-02-06T00:38:14.046Z,996.50
2018-02-06T00:40:06.805Z,996.52
2018-02-06T00:41:06.694Z,996.48
2018-02-06T00:42:59.441Z,996.45
2018-02-06T00:43:59.340Z,996.41
2018-02-06T00:45:52.123Z,996.42
2018-02-06T00:46:52.005Z,996.40
2018-02-06T00:48:44.750Z,996.40
2018-02-06T00:49:44.645Z,996.45
2018-02-06T00:51:37.412Z,996.33
2018-02-06T00:52:37.299Z,996.29
2018-02-06T00:54:30.037Z,996.30
2018-02-06T00:55:29.947Z,996.25
2018-02-06T00:57:22.695Z,996.25
2018-02-06T00:58:22.570Z,996.23
2018-02-06T01:00:15.336Z,996.24
2018-02-06T01:01:15.228Z,996.25
2018-02-06T01:03:07.997Z,996.21
2018-02-06T01:04:07.871Z,996.26
2018-02-06T01:06:00.685Z,996.19
2018-02-06T01:07:00.668Z,996.22
2018-02-06T01:08:53.393Z,996.13
2018-02-06T01:09:53.258Z,996.17
2018-02-06T01:11:46.049Z,996.15
2018-02-06T01:12:45.915Z,996.12
2018-02-06T01:14:38.696Z,996.08
2018-02-06T01:15:38.577Z,996.07
2018-02-06T01:17:31.851Z,995.98
2018-02-06T01:18:31.709Z,995.98
2018-02-06T01:20:24.703Z,995.94
2018-02-06T01:21:24.458Z,996.01
2018-02-06T01:23:17.218Z,995.92
2018-02-06T01:24:17.108Z,995.91
2018-02-06T01:26:09.912Z,995.90
2018-02-06T01:27:09.754Z,995.85
2018-02-06T01:29:02.533Z,995.87
2018-02-06T01:30:02.405Z,995.86
2018-02-06T01:31:55.195Z,995.86
2018-02-06T01:32:55.062Z,995.86
2018-02-06T01:34:47.832Z,995.75
2018-02-06T01:35:47.715Z,995.78
2018-02-06T01:37:40.478Z,995.75
2018-02-06T01:38:40.352Z,995.72
2018-02-06T01:40:33.107Z,995.71
2018-02-06T01:41:32.998Z,995.71
2018-02-06T01:43:25.752Z,995.72
2018-02-06T01:44:25.642Z,995.69
2018-02-06T01:46:18.403Z,995.65
2018-02-06T01:47:18.311Z,995.67
2018-02-06T01:49:11.091Z,995.62
2018-02-06T01:50:10.930Z,995.58
2018-02-06T01:52:03.691Z,995.63
2018-02-06T01:53:03.589Z,995.59
2018-02-06T01:54:56.346Z,995.61
2018-02-06T01:55:56.227Z,995.54
2018-02-06T01:57:48.987Z,995.53
2018-02-06T01:58:48.875Z,995.45
2018-02-06T02:00:41.638Z,995.50
2018-02-06T02:01:41.528Z,995.45
2018-02-06T02:03:34.298Z,995.40
2018-02-06T02:04:34.185Z,995.37
2018-02-06T02:06:26.970Z,995.35
2018-02-06T02:07:26.819Z,995.35
2018-02-06T02:09:19.581Z,995.33
2018-02-06T02:10:19.478Z,995.27
2018-02-06T02:12:12.300Z,995.22
2018-02-06T02:13:12.127Z,995.21
2018-02-06T02:15:05.405Z,995.20
2018-02-06T02:16:05.272Z,995.23
2018-02-06T02:17:58.061Z,995.13
2018-02-06T02:18:57.928Z,995.17
2018-02-06T02:20:51.290Z,995.10
2018-02-06T02:21:51.175Z,995.07
2018-02-06T02:23:44.014Z,995.03
2018-02-06T02:24:43.825Z,994.99
2018-02-06T02:26:36.631Z,995.00
2018-02-06T02:27:36.549Z,994.98
2018-02-06T02:29:29.239Z,994.97
2018-02-06T02:30:29.119Z,994.94
2018-02-06T02:32:21.878Z,994.93
2018-02-06T02:33:21.794Z,994.88
2018-02-06T02:35:14.550Z,994.93
2018-02-06T02:36:14.414Z,994.92
2018-02-06T02:38:07.166Z,994.89
2018-02-06T02:39:07.078Z,994.86
2018-02-06T02:40:59.947Z,994.85
2018-02-06T04:39:04.702Z,993.58
2018-02-06T04:40:04.587Z,993.65
2018-02-06T04:41:57.369Z,993.59
2018-02-06T04:42:57.237Z,993.56
2018-02-06T04:44:50.495Z,993.54
2018-02-06T04:45:50.389Z,993.52
2018-02-06T04:47:43.670Z,993.46
2018-02-06T04:48:43.549Z,993.48
2018-02-06T04:50:36.825Z,993.45
2018-02-06T04:51:36.705Z,993.45
2018-02-06T04:53:30.008Z,993.47
2018-02-06T04:54:29.867Z,993.44
2018-02-06T04:56:22.644Z,993.39
2018-02-06T04:57:22.528Z,993.44
2018-02-06T04:59:15.811Z,993.39
2018-02-06T05:00:15.734Z,993.35
2018-02-06T05:02:08.442Z,993.34
2018-02-06T05:03:08.325Z,993.34
2018-02-06T05:05:01.099Z,993.35
2018-02-06T05:06:00.974Z,993.31
2018-02-06T05:07:53.728Z,993.30
2018-02-06T05:08:53.629Z,993.30
2018-02-06T05:10:46.446Z,993.23
2018-02-06T05:11:46.318Z,993.22
2018-02-06T05:13:39.051Z,993.23
2018-02-06T05:14:38.922Z,993.20
2018-02-06T05:16:31.738Z,993.15
2018-02-06T05:17:31.562Z,993.12
2018-02-06T05:19:24.334Z,993.12
2018-02-06T05:20:24.211Z,993.10
2018-02-06T05:22:16.991Z,993.09
2018-02-06T05:23:16.873Z,993.04
2018-02-06T05:25:10.480Z,992.98
2018-02-06T05:26:09.513Z,992.95
2018-02-06T05:28:02.800Z,992.89
2018-02-06T05:29:02.655Z,992.90
2018-02-06T05:30:55.506Z,992.87
2018-02-06T05:31:55.299Z,992.81
2018-02-06T05:33:48.074Z,992.79
2018-02-06T05:34:47.949Z,992.76
2018-02-06T05:36:40.720Z,992.74
2018-02-06T05:37:40.614Z,992.76
2018-02-06T05:39:33.363Z,992.78
2018-02-06T05:40:33.265Z,992.80
2018-02-06T05:42:26.027Z,992.79
2018-02-06T05:43:25.897Z,992.70
2018-02-06T05:45:18.657Z,992.70
2018-02-06T05:46:18.557Z,992.71
2018-02-06T05:48:11.300Z,992.65
2018-02-06T05:49:11.195Z,992.59
2018-02-06T05:51:03.977Z,992.58
2018-02-06T05:52:03.845Z,992.55
2018-02-06T05:53:56.599Z,992.60
2018-02-06T05:54:56.483Z,992.54
2018-02-06T05:56:49.285Z,992.51
2018-02-06T05:57:49.138Z,992.55
2018-02-06T05:59:41.881Z,992.51
2018-02-06T06:00:41.772Z,992.52
2018-02-06T06:02:34.544Z,992.53
2018-02-06T06:03:34.429Z,992.53
2018-02-06T06:05:27.184Z,992.51
2018-02-06T06:06:27.079Z,992.52
2018-02-06T06:08:19.857Z,992.53
2018-02-06T06:09:19.773Z,992.53
2018-02-06T06:11:12.498Z,992.52
2018-02-06T06:12:12.363Z,992.54
2018-02-06T06:14:05.149Z,992.54
2018-02-06T06:15:05.016Z,992.50
2018-02-06T06:16:57.767Z,992.53
2018-02-06T06:17:57.666Z,992.55
2018-02-06T06:19:50.463Z,992.54
2018-02-06T06:20:50.316Z,992.51
2018-02-06T06:22:43.077Z,992.49
2018-02-06T06:23:42.955Z,992.56
2018-02-06T06:25:35.749Z,992.57
2018-02-06T06:26:35.598Z,992.53
2018-02-06T06:28:28.401Z,992.53
2018-02-06T06:29:28.240Z,992.49
2018-02-06T06:31:21.040Z,992.50
2018-02-06T06:32:20.898Z,992.51
2018-02-06T06:34:13.651Z,992.56
2018-02-06T06:35:13.537Z,992.55
2018-02-06T06:37:06.375Z,992.54
2018-02-06T06:38:06.207Z,992.52
2018-02-06T06:39:58.962Z,992.51
2018-02-06T06:40:58.836Z,992.50
2018-02-06T06:42:52.164Z,992.55
2018-02-06T06:43:52.003Z,992.56
2018-02-06T06:45:44.752Z,992.56
2018-02-06T06:46:44.649Z,992.56
2018-02-06T06:48:37.432Z,992.50
2018-02-06T06:49:37.343Z,992.53
2018-02-06T06:51:30.052Z,992.53
2018-02-06T06:52:29.934Z,992.49
2018-02-06T06:54:22.719Z,992.46
2018-02-06T06:55:22.590Z,992.51
2018-02-06T06:57:15.348Z,992.51
2018-02-06T06:58:15.236Z,992.48
2018-02-06T07:00:08.017Z,992.45
2018-02-06T07:01:07.885Z,992.46
2018-02-06T07:03:00.642Z,992.45
2018-02-06T07:04:00.532Z,992.47
2018-02-06T07:05:53.320Z,992.46
2018-02-06T07:06:53.204Z,992.45
2018-02-06T07:08:45.935Z,992.45
2018-02-06T07:09:45.820Z,992.45
2018-02-06T07:11:38.601Z,992.43
2018-02-06T07:12:38.479Z,992.42
2018-02-06T07:14:31.227Z,992.40
2018-02-06T07:15:31.160Z,992.43
2018-02-06T07:17:24.097Z,992.38
2018-02-06T07:18:23.967Z,992.30
2018-02-06T07:20:17.236Z,992.27
2018-02-06T07:21:17.126Z,992.24
2018-02-06T07:23:09.921Z,992.29
2018-02-06T07:24:09.785Z,992.27
2018-02-06T07:26:02.533Z,992.25
2018-02-06T07:27:02.432Z,992.30
2018-02-06T07:28:55.208Z,992.30
2018-02-06T07:29:55.073Z,992.27
2018-02-06T07:31:47.820Z,992.26
2018-02-06T07:32:47.726Z,992.26
2018-02-06T07:34:40.777Z,992.26
2018-02-06T07:35:40.372Z,992.25
2018-02-06T07:37:33.146Z,992.33
2018-02-06T07:38:33.020Z,992.27
2018-02-06T07:40:25.794Z,992.23
2018-02-06T07:41:25.654Z,992.19
2018-02-06T07:43:18.427Z,992.17
2018-02-06T07:44:18.303Z,992.12
2018-02-06T07:46:11.086Z,992.10
2018-02-06T07:47:10.952Z,992.14
2018-02-06T07:49:04.215Z,992.13
2018-02-06T07:50:04.116Z,992.12
2018-02-06T07:51:56.900Z,992.15
2018-02-06T07:52:56.759Z,992.17
2018-02-06T07:54:49.529Z,992.14
2018-02-06T07:55:49.449Z,992.19
2018-02-06T07:57:42.186Z,992.18
2018-02-06T07:58:42.056Z,992.22
2018-02-06T08:00:34.806Z,992.26
2018-02-06T08:01:34.697Z,992.20
2018-02-06T08:03:27.477Z,992.19
2018-02-06T08:04:27.351Z,992.17
2018-02-06T08:06:20.626Z,992.11
2018-02-06T08:07:20.519Z,992.13
2018-02-06T08:09:13.814Z,992.12
2018-02-06T08:10:13.672Z,992.09
2018-02-06T08:12:06.445Z,992.08
2018-02-06T08:13:06.431Z,992.07
2018-02-06T08:14:59.101Z,992.07
2018-02-06T08:15:58.955Z,992.07
2018-02-06T08:17:52.231Z,992.08
2018-02-06T08:18:52.122Z,992.06
2018-02-06T08:20:44.880Z,992.05
2018-02-06T08:21:44.761Z,992.05
2018-02-06T08:23:37.526Z,992.02
2018-02-06T08:24:37.412Z,992.05
2018-02-06T08:26:30.194Z,992.06
2018-02-06T08:27:30.056Z,992.06
2018-02-06T08:29:22.821Z,992.07
2018-02-06T08:30:22.722Z,992.08
2018-02-06T08:32:15.486Z,992.01
2018-02-06T08:33:15.349Z,991.96
2018-02-06T08:35:08.113Z,992.00
2018-02-06T08:36:08.000Z,991.99
2018-02-06T08:38:00.768Z,991.96
2018-02-06T08:39:00.645Z,991.99
2018-02-06T08:40:53.406Z,991.96
2018-02-06T08:41:53.296Z,991.98
2018-02-06T08:43:46.079Z,991.92
2018-02-06T08:44:45.943Z,991.92
2018-02-06T08:46:38.704Z,991.89
2018-02-06T08:47:38.588Z,991.90
2018-02-06T08:49:31.369Z,991.83
2018-02-06T08:50:31.235Z,991.85
2018-02-06T08:52:24.011Z,991.79
2018-02-06T08:53:23.896Z,991.82
2018-02-06T08:55:16.653Z,991.82
2018-02-06T08:56:16.528Z,991.79
2018-02-06T08:58:10.582Z,991.80
2018-02-06T08:59:09.181Z,991.77
2018-02-06T09:01:01.978Z,991.75
2018-02-06T09:02:01.855Z,991.78
2018-02-06T09:03:54.575Z,991.72
2018-02-06T09:04:54.473Z,991.70
2018-02-06T09:06:47.239Z,991.73
2018-02-06T09:07:47.141Z,991.71
2018-02-06T09:09:39.886Z,991.70
2018-02-06T09:10:39.775Z,991.72
2018-02-06T09:12:32.547Z,991.69
2018-02-06T09:13:32.427Z,991.70
2018-02-06T09:15:25.253Z,991.65
2018-02-06T09:16:25.076Z,991.64
2018-02-06T09:18:18.023Z,991.58
2018-02-06T09:19:17.711Z,991.63
2018-02-06T09:21:10.975Z,991.53
2018-02-06T09:22:10.868Z,991.53
2018-02-06T09:24:03.657Z,991.49
2018-02-06T09:25:03.517Z,991.52
2018-02-06T09:26:56.276Z,991.54
2018-02-06T09:27:56.161Z,991.56
2018-02-06T09:29:48.927Z,991.54
2018-02-06T09:30:48.821Z,991.54
2018-02-06T09:32:41.565Z,991.54
2018-02-06T09:33:41.459Z,991.56
2018-02-06T09:35:34.264Z,991.53
2018-02-06T09:36:34.105Z,991.49
2018-02-06T09:38:26.859Z,991.52
2018-02-06T09:39:26.752Z,991.54
2018-02-06T09:41:20.302Z,991.61
2018-02-06T09:42:19.919Z,991.58
2018-02-06T09:44:12.670Z,991.57
2018-02-06T09:45:12.556Z,991.54
2018-02-06T09:47:05.351Z,991.56
2018-02-06T09:48:05.207Z,991.55
2018-02-06T09:49:57.964Z,991.53
2018-02-06T09:50:57.855Z,991.51
2018-02-06T09:52:50.632Z,991.49
2018-02-06T09:53:50.510Z,991.50
2018-02-06T09:55:43.763Z,991.52
2018-02-06T09:56:43.658Z,991.52
2018-02-06T09:58:36.436Z,991.49
2018-02-06T09:59:36.307Z,991.48
2018-02-06T10:01:29.066Z,991.52
2018-02-06T10:02:28.964Z,991.50
2018-02-06T10:04:22.244Z,991.45
2018-02-06T10:05:22.138Z,991.48
2018-02-06T10:07:14.954Z,991.46
2018-02-06T10:08:14.778Z,991.47
2018-02-06T10:10:08.060Z,991.38
2018-02-06T10:11:07.926Z,991.43
2018-02-06T10:13:00.785Z,991.37
2018-02-06T10:14:00.674Z,991.41
2018-02-06T10:15:53.708Z,991.38
2018-02-06T10:16:53.313Z,991.36
2018-02-06T10:18:46.089Z,991.28
2018-02-06T10:19:45.964Z,991.24
2018-02-06T10:21:39.518Z,991.29
2018-02-06T10:22:39.128Z,991.26
2018-02-06T10:24:31.878Z,991.24
2018-02-06T10:25:31.767Z,991.17
2018-02-06T10:27:24.549Z,991.12
2018-02-06T10:28:24.418Z,991.11
2018-02-06T10:30:17.176Z,991.12
2018-02-06T10:31:17.070Z,991.12
2018-02-06T10:33:10.107Z,991.11
2018-02-06T10:34:09.722Z,991.09
2018-02-06T10:36:02.987Z,991.04
2018-02-06T10:37:02.875Z,991.07
2018-02-06T10:38:55.672Z,990.99
2018-02-06T10:39:55.528Z,991.04
2018-02-06T10:41:48.274Z,991.01
2018-02-06T10:42:48.172Z,991.04
2018-02-06T10:44:40.942Z,990.99
2018-02-06T10:45:40.805Z,990.98
2018-02-06T10:47:33.561Z,990.98
2018-02-06T10:48:33.460Z,990.95
2018-02-06T10:50:26.235Z,990.94
2018-02-06T10:51:26.109Z,990.94
2018-02-06T10:53:18.856Z,990.89
2018-02-06T10:54:18.753Z,990.90
2018-02-06T10:56:11.518Z,990.82
2018-02-06T10:57:11.420Z,990.81
2018-02-06T10:59:04.211Z,990.84
2018-02-06T11:00:04.045Z,990.82
2018-02-06T11:01:56.823Z,990.76
2018-02-06T11:02:56.698Z,990.79
2018-02-06T11:04:49.444Z,990.79
2018-02-06T11:05:49.342Z,990.82
2018-02-06T11:07:42.139Z,990.81
2018-02-06T11:08:41.986Z,990.82
2018-02-06T11:10:34.737Z,990.84
2018-02-06T11:11:34.636Z,990.77
2018-02-06T11:13:27.433Z,990.75
2018-02-06T11:14:27.281Z,990.75
2018-02-06T11:16:20.027Z,990.69
2018-02-06T11:17:19.938Z,990.69
2018-02-06T11:19:12.707Z,990.70
2018-02-06T11:20:12.775Z,990.65
2018-02-06T11:22:05.343Z,990.66
2018-02-06T11:23:05.225Z,990.64
2018-02-06T11:24:58.248Z,990.59
2018-02-06T11:25:57.885Z,990.60
2018-02-06T11:27:50.697Z,990.54
2018-02-06T11:28:50.519Z,990.56
2018-02-06T11:30:43.318Z,990.53
2018-02-06T11:31:43.172Z,990.52
2018-02-06T11:33:35.944Z,990.49
2018-02-06T11:34:35.815Z,990.47
2018-02-06T11:36:28.679Z,990.49
2018-02-06T11:37:28.580Z,990.50
2018-02-06T11:39:21.322Z,990.49
2018-02-06T11:40:21.215Z,990.45
2018-02-06T11:42:14.233Z,990.46
2018-02-06T11:43:13.868Z,990.43
2018-02-06T11:45:07.439Z,990.39
2018-02-06T11:46:07.334Z,990.34
2018-02-06T11:48:00.208Z,990.34
2018-02-06T11:49:00.080Z,990.33
2018-02-06T11:50:52.927Z,990.29
2018-02-06T11:51:52.815Z,990.31
2018-02-06T11:53:45.687Z,990.29
2018-02-06T11:54:45.567Z,990.28
2018-02-06T11:56:38.429Z,990.25
2018-02-06T11:57:38.319Z,990.25
2018-02-06T11:59:31.213Z,990.22
2018-02-06T12:00:31.066Z,990.20
2018-02-06T12:02:23.940Z,990.17
2018-02-06T12:03:23.817Z,990.16
2018-02-06T12:05:16.953Z,990.11
2018-02-06T12:06:16.656Z,990.07
2018-02-06T12:08:09.438Z,990.03
2018-02-06T12:09:09.362Z,990.04
2018-02-06T12:11:02.198Z,990.01
2018-02-06T12:12:02.123Z,990.02
2018-02-06T12:13:55.031Z,989.98
2018-02-06T12:14:55.019Z,989.91
2018-02-06T12:16:48.327Z,989.87
2018-02-06T12:17:48.244Z,989.86
2018-02-06T12:19:41.038Z,989.91
2018-02-06T12:20:40.934Z,989.85
2018-02-06T12:22:33.825Z,989.87
2018-02-06T12:23:33.683Z,989.88
2018-02-06T12:25:26.562Z,989.80
2018-02-06T12:26:26.430Z,989.80
2018-02-06T12:28:19.307Z,989.75
2018-02-06T12:29:19.190Z,989.77
2018-02-06T12:31:12.032Z,989.75
2018-02-06T12:32:11.926Z,989.77
2018-02-06T12:34:04.820Z,989.74
2018-02-06T12:35:04.674Z,989.75
2018-02-06T12:36:57.534Z,989.74
2018-02-06T12:37:57.435Z,989.70
2018-02-06T12:39:50.330Z,989.65
2018-02-06T12:40:50.192Z,989.67
2018-02-06T12:42:43.030Z,989.64
2018-02-06T12:43:42.930Z,989.62
2018-02-06T12:45:35.822Z,989.59
2018-02-06T12:46:35.692Z,989.49
2018-02-06T12:48:29.582Z,989.43
2018-02-06T12:49:29.449Z,989.48
2018-02-06T12:51:22.321Z,989.51
2018-02-06T12:52:22.206Z,989.45
2018-02-06T12:54:15.051Z,989.47
2018-02-06T12:55:14.951Z,989.47
2018-02-06T12:57:07.994Z,989.42
2018-02-06T12:58:07.712Z,989.43
2018-02-06T13:00:00.556Z,989.46
2018-02-06T13:01:00.456Z,989.44
2018-02-06T13:02:53.228Z,989.41
2018-02-06T13:03:53.119Z,989.41
2018-02-06T13:05:45.944Z,989.37
2018-02-06T13:06:45.862Z,989.39
2018-02-06T13:08:38.736Z,989.39
2018-02-06T13:09:38.612Z,989.40
2018-02-06T13:11:37.079Z,989.39
2018-02-06T13:12:34.950Z,989.33
2018-02-06T13:14:28.446Z,989.36
2018-02-06T13:15:28.294Z,989.39
2018-02-06T13:17:21.154Z,989.33
2018-02-06T13:18:21.079Z,989.29
2018-02-06T13:20:13.944Z,989.25
2018-02-06T13:21:13.795Z,989.25
2018-02-06T13:23:06.640Z,989.23
2018-02-06T13:24:06.549Z,989.16
2018-02-06T13:25:59.419Z,989.21
2018-02-06T13:26:59.303Z,989.20
2018-02-06T13:28:52.143Z,989.26
2018-02-06T13:29:52.046Z,989.26
2018-02-06T13:31:44.949Z,989.29
2018-02-06T13:32:44.798Z,989.31
2018-02-06T13:34:37.654Z,989.25
2018-02-06T13:35:37.542Z,989.30
2018-02-06T13:37:30.430Z,989.25
2018-02-06T13:38:30.291Z,989.24
2018-02-06T13:40:23.143Z,989.17
2018-02-06T13:41:23.045Z,989.14
2018-02-06T13:43:15.915Z,989.05
2018-02-06T13:44:15.801Z,989.06
2018-02-06T13:46:08.652Z,989.01
2018-02-06T13:47:08.539Z,989.00
2018-02-06T13:49:01.418Z,989.01
2018-02-06T13:50:01.291Z,989.04
2018-02-06T13:51:54.156Z,988.98
2018-02-06T13:52:54.048Z,988.93
2018-02-06T13:54:47.444Z,988.93
2018-02-06T13:55:47.308Z,988.92
2018-02-06T13:57:40.157Z,988.95
2018-02-06T13:58:40.054Z,988.93
2018-02-06T14:00:32.938Z,988.90
2018-02-06T14:01:32.822Z,988.93
2018-02-06T14:03:25.662Z,988.92
2018-02-06T14:04:25.559Z,988.92
2018-02-06T14:06:18.446Z,988.87
2018-02-06T14:07:18.304Z,988.90
2018-02-06T14:09:11.170Z,988.90
2018-02-06T14:10:11.063Z,988.84
2018-02-06T14:12:03.919Z,988.90
2018-02-06T14:13:03.818Z,988.86
2018-02-06T14:14:56.659Z,988.88
2018-02-06T14:15:56.549Z,988.88
2018-02-06T14:17:49.442Z,988.85
2018-02-06T14:18:49.305Z,988.81
2018-02-06T14:20:42.160Z,988.79
2018-02-06T14:21:42.049Z,988.77
2018-02-06T14:23:34.948Z,988.72
2018-02-06T14:24:34.792Z,988.71
2018-02-06T14:26:27.655Z,988.74
2018-02-06T14:27:27.547Z,988.73
2018-02-06T14:29:20.917Z,988.70
2018-02-06T14:30:20.832Z,988.68
2018-02-06T14:32:13.656Z,988.67
2018-02-06T14:33:13.568Z,988.67
2018-02-06T14:35:06.435Z,988.64
2018-02-06T14:36:06.319Z,988.68
2018-02-06T14:37:59.372Z,988.69
2018-02-06T14:38:59.262Z,988.65
2018-02-06T14:40:52.348Z,988.61
2018-02-06T14:41:52.231Z,988.56
2018-02-06T14:43:45.076Z,988.53
2018-02-06T14:44:44.959Z,988.52
2018-02-06T14:46:37.850Z,988.55
2018-02-06T14:47:37.716Z,988.53
2018-02-06T14:49:30.684Z,988.52
2018-02-06T14:50:30.608Z,988.45
2018-02-06T14:52:23.480Z,988.45
2018-02-06T14:53:23.319Z,988.47
2018-02-06T14:55:16.166Z,988.49
2018-02-06T14:56:16.061Z,988.50
2018-02-06T14:58:08.943Z,988.46
2018-02-06T14:59:08.821Z,988.39
2018-02-06T15:01:01.661Z,988.44
2018-02-06T15:02:01.570Z,988.40
2018-02-06T15:03:54.458Z,988.45
2018-02-06T15:04:54.344Z,988.45
2018-02-06T15:06:47.190Z,988.49
2018-02-06T15:07:47.070Z,988.47
2018-02-06T15:09:39.949Z,988.50
2018-02-06T15:10:39.816Z,988.46
2018-02-06T15:12:32.670Z,988.48
2018-02-06T15:13:32.584Z,988.47
2018-02-06T15:15:25.336Z,988.47
2018-02-06T15:16:25.221Z,988.45
2018-02-06T15:18:17.972Z,988.41
2018-02-06T15:19:17.866Z,988.40
2018-02-06T15:21:10.634Z,988.40
2018-02-06T15:22:10.508Z,988.39
2018-02-06T15:24:03.262Z,988.40
2018-02-06T15:25:03.150Z,988.41
2018-02-06T15:26:55.926Z,988.40
2018-02-06T15:27:55.796Z,988.41
2018-02-06T15:29:49.064Z,988.40
2018-02-06T15:30:48.970Z,988.38
2018-02-06T15:32:41.731Z,988.33
2018-02-06T15:33:41.613Z,988.33
2018-02-06T15:35:34.363Z,988.30
2018-02-06T15:36:34.264Z,988.35
2018-02-06T15:38:27.027Z,988.28
2018-02-06T15:39:26.899Z,988.28
2018-02-06T15:41:19.654Z,988.27
2018-02-06T15:42:19.544Z,988.25
2018-02-06T15:44:12.338Z,988.23
2018-02-06T15:45:12.206Z,988.20
2018-02-06T15:47:04.945Z,988.25
2018-02-06T15:48:04.849Z,988.20
2018-02-06T15:49:57.617Z,988.17
2018-02-06T15:50:57.505Z,988.22
2018-02-06T15:52:50.782Z,988.18
2018-02-06T15:53:50.680Z,988.22
2018-02-06T15:55:43.439Z,988.25
2018-02-06T15:56:43.299Z,988.25
2018-02-06T15:58:36.062Z,988.30
2018-02-06T15:59:35.968Z,988.31
2018-02-06T16:01:28.731Z,988.22
2018-02-06T16:02:28.597Z,988.28
2018-02-06T16:04:21.443Z,988.27
2018-02-06T16:05:21.347Z,988.28
2018-02-06T16:07:14.278Z,988.30
2018-02-06T16:08:14.109Z,988.35
2018-02-06T16:10:06.944Z,988.33
2018-02-06T16:11:06.872Z,988.30
2018-02-06T16:12:59.724Z,988.36
2018-02-06T16:13:59.587Z,988.37
2018-02-06T16:15:52.485Z,988.36
2018-02-06T16:16:52.374Z,988.33
2018-02-06T16:18:45.206Z,988.34
2018-02-06T16:19:45.081Z,988.36
2018-02-06T16:21:37.943Z,988.35
2018-02-06T16:22:37.836Z,988.33
2018-02-06T16:24:30.808Z,988.32
2018-02-06T16:25:30.755Z,988.31
2018-02-06T16:27:23.444Z,988.29
2018-02-06T16:28:23.338Z,988.27
2018-02-06T16:30:16.206Z,988.21
2018-02-06T16:31:16.077Z,988.17
2018-02-06T16:33:08.937Z,988.18
2018-02-06T16:34:08.832Z,988.15
2018-02-06T16:36:02.212Z,988.17
2018-02-06T16:37:02.098Z,988.13
2018-02-06T16:38:54.953Z,988.14
2018-02-06T16:39:54.840Z,988.15
2018-02-06T16:41:48.208Z,988.14
2018-02-06T16:42:47.604Z,988.15
2018-02-06T16:44:40.455Z,988.18
2018-02-06T16:45:40.352Z,988.14
2018-02-06T16:47:33.226Z,988.18
2018-02-06T16:48:33.102Z,988.21
2018-02-06T16:50:25.956Z,988.23
2018-02-06T16:51:25.846Z,988.26
2018-02-06T16:53:18.738Z,988.28
2018-02-06T16:54:18.608Z,988.28
2018-02-06T16:56:11.443Z,988.29
2018-02-06T16:57:11.335Z,988.32
2018-02-06T16:59:04.428Z,988.37
2018-02-06T17:00:04.296Z,988.37
2018-02-06T17:01:57.149Z,988.35
2018-02-06T17:02:57.035Z,988.35
2018-02-06T17:04:49.955Z,988.37
2018-02-06T17:05:49.895Z,988.37
2018-02-06T17:07:42.647Z,988.40
2018-02-06T17:08:42.566Z,988.40
2018-02-06T17:10:35.428Z,988.47
2018-02-06T17:11:35.295Z,988.42
2018-02-06T17:13:28.084Z,988.42
2018-02-06T17:14:28.028Z,988.43
2018-02-06T17:16:21.238Z,988.45
2018-02-06T17:17:21.186Z,988.51
2018-02-06T17:19:15.407Z,988.52
2018-02-06T17:20:15.298Z,988.56
2018-02-06T17:22:09.102Z,988.53
2018-02-06T17:23:08.965Z,988.51
2018-02-06T17:25:01.712Z,988.47
2018-02-06T17:26:01.605Z,988.44
2018-02-06T17:27:54.366Z,988.42
2018-02-06T17:28:54.272Z,988.41
2018-02-06T17:30:47.005Z,988.39
2018-02-06T17:31:46.909Z,988.43
2018-02-06T17:33:39.677Z,988.47
2018-02-06T17:34:39.550Z,988.41
2018-02-06T17:36:32.320Z,988.36
2018-02-06T17:37:32.201Z,988.33
2018-02-06T17:39:25.177Z,988.39
2018-02-06T17:40:25.041Z,988.39
2018-02-06T17:42:18.338Z,988.41
2018-02-06T17:43:18.210Z,988.41
2018-02-06T17:45:11.053Z,988.39
2018-02-06T17:46:10.855Z,988.39
2018-02-06T17:48:03.622Z,988.37
2018-02-06T17:49:03.538Z,988.34
2018-02-06T17:50:56.291Z,988.32
2018-02-06T17:51:56.145Z,988.30
2018-02-06T17:53:48.904Z,988.32
2018-02-06T17:54:48.795Z,988.30
2018-02-06T17:56:41.590Z,988.28
2018-02-06T17:57:41.438Z,988.27
2018-02-06T17:59:34.228Z,988.31
2018-02-06T18:00:34.086Z,988.28
2018-02-06T18:02:26.873Z,988.23
2018-02-06T18:03:26.733Z,988.27
2018-02-06T18:05:19.492Z,988.32
2018-02-06T18:06:19.395Z,988.25
2018-02-06T18:08:12.175Z,988.23
2018-02-06T18:09:12.032Z,988.20
2018-02-06T18:11:05.802Z,988.19
2018-02-06T18:12:05.710Z,988.21
2018-02-06T18:13:58.582Z,988.23
2018-02-06T18:14:58.353Z,988.17
2018-02-06T18:16:51.112Z,988.15
2018-02-06T18:17:51.001Z,988.11
2018-02-06T18:19:43.767Z,988.12
2018-02-06T18:20:43.650Z,988.10
2018-02-06T18:22:36.390Z,988.09
2018-02-06T18:23:36.300Z,988.16
2018-02-06T18:25:29.066Z,988.16
2018-02-06T18:26:28.950Z,988.15
2018-02-06T18:28:21.705Z,988.21
2018-02-06T18:29:21.591Z,988.23
2018-02-06T18:31:14.370Z,988.23
2018-02-06T18:32:14.226Z,988.21
2018-02-06T18:34:07.004Z,988.20
2018-02-06T18:35:06.875Z,988.22
2018-02-06T18:36:59.639Z,988.18
2018-02-06T18:37:59.527Z,988.20
2018-02-06T18:39:52.277Z,988.20
2018-02-06T18:40:52.173Z,988.23
2018-02-06T18:42:44.946Z,988.27
2018-02-06T18:43:44.819Z,988.26
2018-02-06T18:45:37.578Z,988.26
2018-02-06T18:46:37.464Z,988.28
2018-02-06T18:48:30.259Z,988.25
2018-02-06T18:49:30.227Z,988.29
2018-02-06T18:51:22.968Z,988.19
2018-02-06T18:52:22.851Z,988.14
2018-02-06T18:54:15.724Z,988.16
2018-02-06T18:55:15.608Z,988.10
2018-02-06T18:57:08.475Z,988.09
2018-02-06T18:58:08.360Z,988.06
2018-02-06T19:00:01.249Z,988.01
2018-02-06T19:01:01.103Z,987.98
2018-02-06T19:02:53.964Z,987.93
2018-02-06T19:03:53.855Z,987.92
2018-02-06T19:05:46.745Z,987.89
2018-02-06T19:06:46.626Z,987.90
2018-02-06T19:08:39.515Z,987.91
2018-02-06T19:09:39.459Z,987.94
2018-02-06T19:11:32.407Z,987.96
2018-02-06T19:12:32.220Z,987.94
2018-02-06T19:14:24.962Z,987.93
2018-02-06T19:15:24.862Z,987.94
2018-02-06T19:17:17.764Z,987.91
2018-02-06T19:18:17.614Z,987.88
2018-02-06T19:20:10.478Z,987.84
2018-02-06T19:21:10.411Z,987.85
2018-02-06T19:23:03.244Z,987.83
2018-02-06T19:24:03.104Z,987.86
2018-02-06T19:25:55.969Z,987.89
2018-02-06T19:26:55.850Z,987.84
2018-02-06T19:28:48.734Z,987.84
2018-02-06T19:29:48.596Z,987.85
2018-02-06T19:31:41.454Z,987.82
2018-02-06T19:32:41.373Z,987.82
2018-02-06T19:34:34.276Z,987.78
2018-02-06T19:35:34.100Z,987.78
2018-02-06T19:37:26.953Z,987.75
2018-02-06T19:38:26.851Z,987.74
2018-02-06T19:40:19.730Z,987.75
2018-02-06T19:41:19.601Z,987.79
2018-02-06T19:43:12.447Z,987.80
2018-02-06T19:44:12.356Z,987.79
2018-02-06T19:46:05.233Z,987.80
2018-02-06T19:47:05.098Z,987.81
2018-02-06T19:48:58.128Z,987.79
2018-02-06T19:49:57.905Z,987.74
2018-02-06T19:51:51.258Z,987.75
2018-02-06T19:52:51.132Z,987.75
2018-02-06T19:54:43.981Z,987.77